createdAt,value
2023-03-13T00:01:57.427Z,44.30
2023-03-13T00:04:24.300Z,44.25
2023-03-13T00:06:51.036Z,44.36
2023-03-13T00:09:17.727Z,44.39
2023-03-13T00:11:45.759Z,44.37
2023-03-13T00:14:12.452Z,44.20
2023-03-13T00:16:39.852Z,44.45
2023-03-13T00:19:09.249Z,44.21
2023-03-13T00:21:37.791Z,44.39
2023-03-13T00:24:04.568Z,44.76
2023-03-13T00:26:31.288Z,44.78
2023-03-13T00:28:58.216Z,44.43
2023-03-13T00:31:31.538Z,44.38
2023-03-13T00:34:00.402Z,44.44
2023-03-13T00:36:36.204Z,44.59
2023-03-13T00:39:03.729Z,44.24
2023-03-13T00:41:31.516Z,44.38
2023-03-13T00:43:58.215Z,44.58
2023-03-13T00:46:26.396Z,44.21
2023-03-13T00:48:53.096Z,44.49
2023-03-13T00:51:20.645Z,44.47
2023-03-13T00:53:47.256Z,44.54
2023-03-13T00:56:15.246Z,44.53
2023-03-13T00:58:42.819Z,44.46
2023-03-13T01:01:26.275Z,44.50
2023-03-13T01:03:59.223Z,44.22
2023-03-13T01:06:28.430Z,44.45
2023-03-13T01:08:55.262Z,44.18
2023-03-13T01:11:23.680Z,44.47
2023-03-13T01:13:50.539Z,44.06
2023-03-13T01:16:18.774Z,44.27
2023-03-13T01:18:47.572Z,44.65
2023-03-13T01:21:14.555Z,44.38
2023-03-13T01:23:41.217Z,44.60
2023-03-13T01:26:08.283Z,44.67
2023-03-13T01:28:35.603Z,44.29
2023-03-13T01:31:10.579Z,44.49
2023-03-13T01:33:40.401Z,44.52
2023-03-13T01:36:07.621Z,44.18
2023-03-13T01:38:34.309Z,43.75
2023-03-13T01:41:03.073Z,44.19
2023-03-13T01:43:31.338Z,44.37
2023-03-13T01:46:18.846Z,44.13
2023-03-13T01:49:11.715Z,44.29
2023-03-13T01:51:53.001Z,44.18
2023-03-13T01:54:23.602Z,44.54
2023-03-13T01:56:56.607Z,44.21
2023-03-13T01:59:26.329Z,44.23
2023-03-13T02:01:53.473Z,44.19
2023-03-13T02:04:20.432Z,44.28
2023-03-13T02:06:47.695Z,44.28
2023-03-13T02:09:16.439Z,44.30
2023-03-13T02:11:49.814Z,44.19
2023-03-13T02:14:17.622Z,44.27
2023-03-13T02:16:47.837Z,44.36
2023-03-13T02:19:20.638Z,44.29
2023-03-13T02:21:55.977Z,44.30
2023-03-13T02:24:48.746Z,44.16
2023-03-13T02:27:15.326Z,44.55
2023-03-13T02:29:43.305Z,44.36
2023-03-13T02:32:09.920Z,44.63
2023-03-13T02:34:38.130Z,44.40
2023-03-13T02:37:05.896Z,44.44
2023-03-13T02:39:34.782Z,44.28
2023-03-13T02:42:01.357Z,44.38
2023-03-13T02:44:28.043Z,44.22
2023-03-13T02:46:54.727Z,44.23
2023-03-13T02:49:26.316Z,44.34
2023-03-13T02:51:53.715Z,44.30
2023-03-13T02:54:26.715Z,44.34
2023-03-13T02:56:56.145Z,44.08
2023-03-13T02:59:23.269Z,44.18
2023-03-13T03:01:52.695Z,44.11
2023-03-13T03:04:21.345Z,44.37
2023-03-13T03:06:48.213Z,44.14
2023-03-13T03:09:14.899Z,44.19
2023-03-13T03:11:41.663Z,44.12
2023-03-13T03:14:08.915Z,44.21
2023-03-13T03:16:35.651Z,44.19
2023-03-13T03:19:03.821Z,44.06
2023-03-13T03:21:30.476Z,43.92
2023-03-13T03:23:57.036Z,44.21
2023-03-13T03:26:23.647Z,44.15
2023-03-13T03:28:50.248Z,43.89
2023-03-13T03:31:16.962Z,44.15
2023-03-13T03:33:43.671Z,43.93
2023-03-13T03:36:15.663Z,44.04
2023-03-13T03:38:42.589Z,44.12
2023-03-13T03:41:09.874Z,44.11
2023-03-13T03:43:36.457Z,44.19
2023-03-13T03:46:03.190Z,44.11
2023-03-13T03:48:29.875Z,44.10
2023-03-13T03:50:56.413Z,44.14
2023-03-13T03:53:23.100Z,44.11
2023-03-13T03:55:49.808Z,43.99
2023-03-13T03:58:16.406Z,43.89
2023-03-13T04:00:46.539Z,43.91
2023-03-13T04:03:13.314Z,43.98
2023-03-13T04:05:40.065Z,44.06
2023-03-13T04:08:07.244Z,44.07
2023-03-13T04:10:33.803Z,43.91
2023-03-13T04:13:00.370Z,44.01
2023-03-13T04:15:27.038Z,43.98
2023-03-13T04:17:56.227Z,43.88
2023-03-13T04:20:22.892Z,44.25
2023-03-13T04:22:49.477Z,43.82
2023-03-13T04:25:16.061Z,43.97
2023-03-13T04:27:42.675Z,43.94
2023-03-13T04:30:09.887Z,43.75
2023-03-13T04:32:36.545Z,43.91
2023-03-13T04:35:08.529Z,43.93
2023-03-13T04:37:35.203Z,43.92
2023-03-13T04:40:01.895Z,44.04
2023-03-13T04:42:28.531Z,44.22
2023-03-13T04:44:55.165Z,43.96
2023-03-13T04:50:02.365Z,43.87
2023-03-13T04:52:28.899Z,43.64
2023-03-13T04:54:55.445Z,43.90
2023-03-13T04:57:22.062Z,43.70
2023-03-13T04:59:48.594Z,44.31
2023-03-13T05:02:15.198Z,43.96
2023-03-13T05:04:42.007Z,43.68
2023-03-13T05:07:08.650Z,43.85
2023-03-13T05:09:35.173Z,43.55
2023-03-13T05:12:01.801Z,43.86
2023-03-13T05:14:32.961Z,43.34
2023-03-13T05:16:59.567Z,43.75
2023-03-13T05:19:26.221Z,43.78
2023-03-13T05:21:52.817Z,43.95
2023-03-13T05:24:19.345Z,43.79
2023-03-13T05:26:45.950Z,43.54
2023-03-13T05:29:16.682Z,43.12
2023-03-13T05:31:43.321Z,43.74
2023-03-13T05:34:09.927Z,43.73
2023-03-13T05:36:36.540Z,43.72
2023-03-13T05:39:05.277Z,43.84
2023-03-13T05:41:31.915Z,43.86
2023-03-13T05:43:58.617Z,43.67
2023-03-13T05:46:25.197Z,43.87
2023-03-13T05:48:52.840Z,43.46
2023-03-13T05:51:19.374Z,43.76
2023-03-13T05:53:45.875Z,43.82
2023-03-13T05:56:12.438Z,43.72
2023-03-13T05:58:38.961Z,43.55
2023-03-13T06:01:09.504Z,43.66
2023-03-13T06:03:36.179Z,43.72
2023-03-13T06:06:02.836Z,43.73
2023-03-13T06:08:29.447Z,43.56
2023-03-13T06:10:59.689Z,43.41
2023-03-13T06:13:26.383Z,43.46
2023-03-13T06:15:54.028Z,43.42
2023-03-13T06:18:20.771Z,43.36
2023-03-13T06:20:48.746Z,43.57
2023-03-13T06:23:15.498Z,43.54
2023-03-13T06:25:41.993Z,43.40
2023-03-13T06:28:08.519Z,43.26
2023-03-13T06:30:35.113Z,43.29
2023-03-13T06:33:01.756Z,43.38
2023-03-13T06:35:28.285Z,43.78
2023-03-13T06:37:54.865Z,43.36
2023-03-13T06:40:21.429Z,43.99
2023-03-13T06:42:48.006Z,43.44
2023-03-13T06:45:14.532Z,43.86
2023-03-13T06:47:41.125Z,43.71
2023-03-13T06:50:08.104Z,43.72
2023-03-13T06:52:43.535Z,43.89
2023-03-13T06:55:11.007Z,43.82
2023-03-13T06:57:37.557Z,43.93
2023-03-13T07:00:06.309Z,43.89
2023-03-13T07:02:32.894Z,43.82
2023-03-13T07:04:59.748Z,43.90
2023-03-13T07:07:31.745Z,44.04
2023-03-13T07:09:59.032Z,43.88
2023-03-13T07:12:25.589Z,43.84
2023-03-13T07:14:52.159Z,43.95
2023-03-13T07:17:18.750Z,44.66
2023-03-13T07:19:45.352Z,43.99
2023-03-13T07:22:11.929Z,44.17
2023-03-13T07:24:38.504Z,44.13
2023-03-13T07:27:08.006Z,43.95
2023-03-13T07:29:34.859Z,44.45
2023-03-13T07:32:01.741Z,43.99
2023-03-13T07:34:28.813Z,44.07
2023-03-13T07:36:55.599Z,44.10
2023-03-13T07:39:22.535Z,44.17
2023-03-13T07:41:50.633Z,44.06
2023-03-13T07:44:17.187Z,44.19
2023-03-13T07:46:44.064Z,44.17
2023-03-13T07:49:10.555Z,44.34
2023-03-13T07:51:43.375Z,44.25
2023-03-13T07:54:10.635Z,44.46
2023-03-13T07:56:37.167Z,44.50
2023-03-13T07:59:03.768Z,44.30
2023-03-13T08:01:31.157Z,44.50
2023-03-13T08:03:58.760Z,44.33
2023-03-13T08:06:26.049Z,44.40
2023-03-13T08:08:52.731Z,44.50
2023-03-13T08:11:24.940Z,44.44
2023-03-13T08:13:51.838Z,44.52
2023-03-13T08:16:19.955Z,44.57
2023-03-13T08:18:48.543Z,44.63
2023-03-13T08:21:26.113Z,44.75
2023-03-13T08:23:53.657Z,44.56
2023-03-13T08:26:21.343Z,44.65
2023-03-13T08:28:48.536Z,44.60
2023-03-13T08:31:14.982Z,44.53
2023-03-13T08:33:42.638Z,44.64
2023-03-13T08:36:15.680Z,44.45
2023-03-13T08:38:46.002Z,44.30
2023-03-13T08:41:14.030Z,44.51
2023-03-13T08:43:40.535Z,44.39
2023-03-13T08:46:07.140Z,44.76
2023-03-13T08:48:33.843Z,44.48
2023-03-13T08:51:04.750Z,44.44
2023-03-13T08:53:31.342Z,44.45
2023-03-13T08:55:57.849Z,44.42
2023-03-13T08:58:24.469Z,44.56
2023-03-13T09:00:50.967Z,44.37
2023-03-13T09:03:18.096Z,44.41
2023-03-13T09:05:55.751Z,44.62
2023-03-13T09:08:23.012Z,44.61
2023-03-13T09:10:55.364Z,44.55
2023-03-13T09:13:21.936Z,44.58
2023-03-13T09:16:01.487Z,44.67
2023-03-13T09:18:28.607Z,44.67
2023-03-13T09:20:55.271Z,44.55
2023-03-13T09:23:22.033Z,44.56
2023-03-13T09:25:49.426Z,44.58
2023-03-13T09:28:15.937Z,44.66
2023-03-13T09:30:42.556Z,44.47
2023-03-13T09:33:09.097Z,44.52
2023-03-13T09:35:35.703Z,44.29
2023-03-13T09:38:02.248Z,44.46
2023-03-13T09:40:28.751Z,44.84
2023-03-13T09:42:57.228Z,44.59
2023-03-13T09:45:33.959Z,44.64
2023-03-13T09:48:21.177Z,44.49
2023-03-13T09:50:51.226Z,44.75
2023-03-13T09:53:32.132Z,44.63
2023-03-13T09:55:58.642Z,44.71
2023-03-13T09:58:27.100Z,44.62
2023-03-13T10:01:04.311Z,44.70
2023-03-13T10:03:34.565Z,44.60
2023-03-13T10:06:27.728Z,44.57
2023-03-13T10:08:54.263Z,44.73
2023-03-13T10:11:26.024Z,44.58
2023-03-13T10:14:01.674Z,44.73
2023-03-13T10:16:41.808Z,44.62
2023-03-13T10:19:14.158Z,44.63
2023-03-13T10:21:40.664Z,44.54
2023-03-13T10:24:58.541Z,44.71
2023-03-13T10:27:25.059Z,44.54
2023-03-13T10:29:51.633Z,44.90
2023-03-13T10:32:18.178Z,44.61
2023-03-13T10:34:48.611Z,44.54
2023-03-13T10:37:16.361Z,44.75
2023-03-13T10:39:42.833Z,44.74
2023-03-13T10:42:11.152Z,44.76
2023-03-13T10:44:37.680Z,44.85
2023-03-13T10:47:04.898Z,44.95
2023-03-13T10:49:32.279Z,44.77
2023-03-13T10:52:03.402Z,45.01
2023-03-13T10:54:31.564Z,44.94
2023-03-13T10:57:19.308Z,44.83
2023-03-13T10:59:47.174Z,44.94
2023-03-13T11:02:26.106Z,44.83
2023-03-13T11:04:55.270Z,45.48
2023-03-13T11:07:21.746Z,45.00
2023-03-13T11:09:58.695Z,44.66
2023-03-13T11:12:25.613Z,44.91
2023-03-13T11:15:01.421Z,44.75
2023-03-13T11:17:38.559Z,45.05
2023-03-13T11:20:19.855Z,44.80
2023-03-13T11:22:56.076Z,44.71
2023-03-13T11:25:51.453Z,44.78
2023-03-13T11:28:36.160Z,44.83
2023-03-13T11:31:08.864Z,44.79
2023-03-13T11:33:40.454Z,44.79
2023-03-13T11:36:20.355Z,44.73
2023-03-13T11:38:53.817Z,44.76
2023-03-13T11:41:35.576Z,44.80
2023-03-13T11:44:41.953Z,44.92
2023-03-13T11:47:39.576Z,44.88
2023-03-13T11:50:13.173Z,44.95
2023-03-13T11:53:10.111Z,44.95
2023-03-13T11:55:59.856Z,44.79
2023-03-13T11:58:31.125Z,44.89
2023-03-13T12:01:09.326Z,45.19
2023-03-13T12:03:44.868Z,44.90
2023-03-13T12:06:41.705Z,44.91
2023-03-13T12:09:21.562Z,44.79
2023-03-13T12:12:03.382Z,44.88
2023-03-13T12:14:35.939Z,45.03
2023-03-13T12:17:04.225Z,45.01
2023-03-13T12:19:55.814Z,44.93
2023-03-13T12:22:31.221Z,44.94
2023-03-13T12:25:40.417Z,45.02
2023-03-13T12:28:26.086Z,45.05
2023-03-13T12:31:36.129Z,44.93
2023-03-13T12:34:21.565Z,44.97
2023-03-13T12:36:50.892Z,45.14
2023-03-13T12:39:34.627Z,45.10
2023-03-13T12:42:17.336Z,45.20
2023-03-13T12:44:43.852Z,44.74
2023-03-13T12:47:15.216Z,44.95
2023-03-13T12:50:15.765Z,44.50
2023-03-13T12:53:17.561Z,45.14
2023-03-13T12:55:50.025Z,45.14
2023-03-13T12:58:48.912Z,45.12
2023-03-13T13:01:24.526Z,45.13
2023-03-13T13:03:56.486Z,45.15
2023-03-13T13:06:23.106Z,45.22
2023-03-13T13:08:52.563Z,45.16
2023-03-13T13:11:37.496Z,45.07
2023-03-13T13:14:19.144Z,45.06
2023-03-13T13:17:00.358Z,45.16
2023-03-13T13:19:26.785Z,45.22
2023-03-13T13:22:30.930Z,44.99
2023-03-13T13:24:57.922Z,45.14
2023-03-13T13:27:34.511Z,45.05
2023-03-13T13:30:04.456Z,45.16
2023-03-13T13:32:33.626Z,45.29
2023-03-13T13:35:12.293Z,45.15
2023-03-13T13:37:39.792Z,44.97
2023-03-13T13:40:16.588Z,45.22
2023-03-13T13:42:56.438Z,45.10
2023-03-13T13:45:25.615Z,45.11
2023-03-13T13:47:52.577Z,45.17
2023-03-13T13:50:20.857Z,45.07
2023-03-13T13:52:48.030Z,45.19
2023-03-13T13:55:26.663Z,45.33
2023-03-13T13:58:05.836Z,45.21
2023-03-13T14:00:56.315Z,45.17
2023-03-13T14:03:27.440Z,45.19
2023-03-13T14:06:00.726Z,45.06
2023-03-13T14:08:34.189Z,45.08
2023-03-13T14:11:22.288Z,45.12
2023-03-13T14:14:11.189Z,45.19
2023-03-13T14:16:38.316Z,45.09
2023-03-13T14:19:04.863Z,45.55
2023-03-13T14:21:33.097Z,44.69
2023-03-13T14:23:59.677Z,45.43
2023-03-13T14:26:27.490Z,45.14
2023-03-13T14:29:06.727Z,45.17
2023-03-13T14:31:36.212Z,45.14
2023-03-13T14:34:04.892Z,45.25
2023-03-13T14:36:31.430Z,45.17
2023-03-13T14:38:59.168Z,45.02
2023-03-13T14:41:46.391Z,45.11
2023-03-13T14:44:26.521Z,45.12
2023-03-13T14:46:57.655Z,45.23
2023-03-13T14:49:26.331Z,45.21
2023-03-13T14:52:03.622Z,45.22
2023-03-13T14:54:37.258Z,45.17
2023-03-13T14:57:04.631Z,45.33
2023-03-13T14:59:31.271Z,45.25
2023-03-13T15:02:30.922Z,45.30
2023-03-13T15:05:01.616Z,45.18
2023-03-13T15:07:38.768Z,45.22
2023-03-13T15:10:38.481Z,45.21
2023-03-13T15:13:23.677Z,45.28
2023-03-13T15:15:50.769Z,45.36
2023-03-13T15:18:20.371Z,45.24
2023-03-13T15:20:51.007Z,45.36
2023-03-13T15:23:17.571Z,45.30
2023-03-13T15:25:44.087Z,45.26
2023-03-13T15:28:23.249Z,45.35
2023-03-13T15:30:53.985Z,45.34
2023-03-13T15:33:21.851Z,45.23
2023-03-13T15:35:48.649Z,45.27
2023-03-13T15:38:20.114Z,45.38
2023-03-13T15:40:46.783Z,44.78
2023-03-13T15:43:13.423Z,45.17
2023-03-13T15:45:41.541Z,45.37
2023-03-13T15:48:25.147Z,45.26
2023-03-13T15:50:52.135Z,45.31
2023-03-13T15:53:20.615Z,45.21
2023-03-13T15:55:47.951Z,45.32
2023-03-13T15:58:14.454Z,45.25
2023-03-13T16:00:41.298Z,45.35
2023-03-13T16:03:20.330Z,45.26
2023-03-13T16:05:47.159Z,45.22
2023-03-13T16:08:29.215Z,45.33
2023-03-13T16:11:01.038Z,45.62
2023-03-13T16:13:27.544Z,44.81
2023-03-13T16:15:54.062Z,45.18
2023-03-13T16:18:21.403Z,45.25
2023-03-13T16:20:48.151Z,45.34
2023-03-13T16:23:14.878Z,45.39
2023-03-13T16:25:41.373Z,45.17
2023-03-13T16:28:07.912Z,45.31
2023-03-13T16:30:34.767Z,45.37
2023-03-13T16:33:01.430Z,45.08
2023-03-13T16:35:28.292Z,45.40
2023-03-13T16:37:58.255Z,45.35
2023-03-13T16:40:26.477Z,45.32
2023-03-13T16:42:53.097Z,45.28
2023-03-13T16:45:19.701Z,45.36
2023-03-13T16:47:46.360Z,45.24
2023-03-13T16:50:27.524Z,45.37
2023-03-13T16:52:54.244Z,45.33
2023-03-13T16:55:21.906Z,45.27
2023-03-13T16:57:48.461Z,45.55
2023-03-13T17:00:20.005Z,45.44
2023-03-13T17:02:46.659Z,45.38
2023-03-13T17:05:15.859Z,45.85
2023-03-13T17:07:44.368Z,45.48
2023-03-13T17:10:22.700Z,45.62
2023-03-13T17:12:49.391Z,45.37
2023-03-13T17:15:16.014Z,45.45
2023-03-13T17:17:43.185Z,45.53
2023-03-13T17:20:13.311Z,45.41
2023-03-13T17:22:39.819Z,45.57
2023-03-13T17:25:06.628Z,45.48
2023-03-13T17:27:33.181Z,45.46
2023-03-13T17:29:59.664Z,45.36
2023-03-13T17:32:26.284Z,45.53
2023-03-13T17:34:52.929Z,45.56
2023-03-13T17:37:20.513Z,45.50
2023-03-13T17:39:47.418Z,45.48
2023-03-13T17:42:14.016Z,45.42
2023-03-13T17:44:41.246Z,45.59
2023-03-13T17:47:15.096Z,45.61
2023-03-13T17:49:42.341Z,45.53
2023-03-13T17:52:16.440Z,45.45
2023-03-13T17:54:43.636Z,45.52
2023-03-13T17:57:13.852Z,45.58
2023-03-13T17:59:40.424Z,45.69
2023-03-13T18:02:10.785Z,45.70
2023-03-13T18:04:37.358Z,45.32
2023-03-13T18:07:04.818Z,45.63
2023-03-13T18:09:31.341Z,45.68
2023-03-13T18:11:57.857Z,45.37
2023-03-13T18:14:24.359Z,45.88
2023-03-13T18:16:52.231Z,45.58
2023-03-13T18:19:24.947Z,45.74
2023-03-13T18:21:53.155Z,45.56
2023-03-13T18:24:19.663Z,45.68
2023-03-13T18:26:47.211Z,45.57
2023-03-13T18:29:26.605Z,45.72
2023-03-13T18:31:55.311Z,45.66
2023-03-13T18:34:22.515Z,45.86
2023-03-13T18:36:49.057Z,45.51
2023-03-13T18:39:17.293Z,45.73
2023-03-13T18:41:44.862Z,45.62
2023-03-13T18:44:15.511Z,45.89
2023-03-13T18:46:42.895Z,45.70
2023-03-13T18:49:17.329Z,45.65
2023-03-13T18:51:45.337Z,45.40
2023-03-13T18:54:11.912Z,45.32
2023-03-13T18:56:38.506Z,45.84
2023-03-13T18:59:05.294Z,45.60
2023-03-13T19:01:31.899Z,45.84
2023-03-13T19:04:00.079Z,45.79
2023-03-13T19:06:28.779Z,45.68
2023-03-13T19:08:59.781Z,45.74
2023-03-13T19:11:27.748Z,45.75
2023-03-13T19:13:54.454Z,45.70
2023-03-13T19:16:35.021Z,45.70
2023-03-13T19:19:01.594Z,45.82
2023-03-13T19:21:29.106Z,45.69
2023-03-13T19:23:55.666Z,45.73
2023-03-13T19:26:33.342Z,45.77
2023-03-13T19:28:59.872Z,45.43
2023-03-13T19:31:26.528Z,45.72
2023-03-13T19:33:54.270Z,45.65
2023-03-13T19:36:22.249Z,45.75
2023-03-13T19:38:48.918Z,45.73
2023-03-13T19:41:15.688Z,45.64
2023-03-13T19:43:42.512Z,45.66
2023-03-13T19:46:22.626Z,45.58
2023-03-13T19:48:49.591Z,45.58
2023-03-13T19:51:16.148Z,45.92
2023-03-13T19:53:42.700Z,45.28
2023-03-13T19:56:18.538Z,45.69
2023-03-13T20:01:17.606Z,45.65
2023-03-13T20:03:45.466Z,45.69
2023-03-13T20:06:17.986Z,45.54
2023-03-13T20:08:45.021Z,45.92
2023-03-13T20:11:12.140Z,45.57
2023-03-13T20:13:39.341Z,45.68
2023-03-13T20:16:06.251Z,45.81
2023-03-13T20:18:32.890Z,45.72
2023-03-13T20:20:59.475Z,45.88
2023-03-13T20:23:25.978Z,45.53
2023-03-13T20:25:52.645Z,45.71
2023-03-13T20:28:19.224Z,45.35
2023-03-13T20:30:46.064Z,45.80
2023-03-13T20:33:12.787Z,46.08
2023-03-13T20:35:39.534Z,45.97
2023-03-13T20:38:06.276Z,45.75
2023-03-13T20:40:33.654Z,45.73
2023-03-13T20:43:00.350Z,45.90
2023-03-13T20:45:28.506Z,45.78
2023-03-13T20:47:55.306Z,45.91
2023-03-13T20:50:22.091Z,45.81
2023-03-13T20:52:48.961Z,46.03
2023-03-13T20:55:16.139Z,45.98
2023-03-13T20:57:42.732Z,45.83
2023-03-13T21:00:12.250Z,46.03
2023-03-13T21:02:38.791Z,45.97
2023-03-13T21:05:05.672Z,45.86
2023-03-13T21:07:32.322Z,45.65
2023-03-13T21:09:58.845Z,45.59
2023-03-13T21:12:25.420Z,45.73
2023-03-13T21:14:53.584Z,46.18
2023-03-13T21:17:20.231Z,46.01
2023-03-13T21:19:46.795Z,45.77
2023-03-13T21:22:13.422Z,46.10
2023-03-13T21:24:40.079Z,45.85
2023-03-13T21:27:06.596Z,45.88
2023-03-13T21:29:33.186Z,45.63
2023-03-13T21:32:00.049Z,46.36
2023-03-13T21:34:26.591Z,45.73
2023-03-13T21:36:53.191Z,45.83
2023-03-13T21:39:19.920Z,45.68
2023-03-13T21:41:46.487Z,45.48
2023-03-13T21:44:13.045Z,46.35
2023-03-13T21:46:39.720Z,45.98
2023-03-13T21:49:06.264Z,46.24
2023-03-13T21:51:32.754Z,46.06
2023-03-13T21:53:59.266Z,45.37
2023-03-13T21:56:25.833Z,45.92
2023-03-13T21:58:52.354Z,45.90
2023-03-13T22:01:18.870Z,45.97
2023-03-13T22:03:45.506Z,46.64
2023-03-13T22:06:13.713Z,46.17
2023-03-13T22:08:41.332Z,45.98
2023-03-13T22:11:08.110Z,45.95
2023-03-13T22:13:34.820Z,46.05
2023-03-13T22:16:01.306Z,46.03
2023-03-13T22:18:27.794Z,46.36
2023-03-13T22:20:57.476Z,46.06
2023-03-13T22:23:24.019Z,45.63
2023-03-13T22:25:50.644Z,45.90
2023-03-13T22:28:17.130Z,45.65
2023-03-13T22:30:43.843Z,45.98
2023-03-13T22:33:10.335Z,45.94
2023-03-13T22:35:37.649Z,45.91
2023-03-13T22:38:04.345Z,45.88
2023-03-13T22:40:30.928Z,46.06
2023-03-13T22:42:57.504Z,45.86
2023-03-13T22:45:24.632Z,46.49
2023-03-13T22:47:51.108Z,46.12
2023-03-13T22:50:18.763Z,45.95
2023-03-13T22:52:45.283Z,45.72
2023-03-13T22:55:11.797Z,46.15
2023-03-13T22:57:38.268Z,45.42
2023-03-13T23:00:06.061Z,46.17
2023-03-13T23:02:32.599Z,46.28
2023-03-13T23:05:01.045Z,45.90
2023-03-13T23:07:30.556Z,45.89
2023-03-13T23:09:58.969Z,45.94
2023-03-13T23:12:25.953Z,46.04
2023-03-13T23:14:52.783Z,46.00
2023-03-13T23:17:19.283Z,46.27
2023-03-13T23:19:45.871Z,45.96
2023-03-13T23:22:17.682Z,45.87
2023-03-13T23:24:44.538Z,46.20
2023-03-13T23:27:11.119Z,45.55
2023-03-13T23:29:37.658Z,45.70
2023-03-13T23:32:04.219Z,45.98
2023-03-13T23:34:30.774Z,45.97
2023-03-13T23:36:58.162Z,45.93
2023-03-13T23:39:24.733Z,46.11
2023-03-13T23:41:51.296Z,45.98
2023-03-13T23:44:17.798Z,46.13
2023-03-13T23:46:44.304Z,45.63
2023-03-13T23:49:12.796Z,45.85
2023-03-13T23:51:39.381Z,46.11
2023-03-13T23:54:05.904Z,45.75
2023-03-13T23:56:32.490Z,45.89
2023-03-13T23:58:59.032Z,45.86
